Time;durP1;ratioP1;P1;durP2;ratioP2;P2;SDS_P1;SDS_P2;PMS_P1;PMS_P2;Temp;Humidity;BMP_temperature;BMP_pressure;BME280_temperature;BME280_humidity;BME280_pressure;Samples;Min_cycle;Max_cycle;Signal;HPM_P1;HPM_P2
2023/07/29 00:01:59;;;;;;;3.00;2.80;;;19.20;99.90;;;;;;5059208;28;20217;-72
2023/07/29 00:04:25;;;;;;;3.60;3.27;;;19.20;99.90;;;;;;5065185;28;20265;-71
2023/07/29 00:06:50;;;;;;;4.00;3.37;;;19.20;99.90;;;;;;5067873;28;20204;-72
2023/07/29 00:09:16;;;;;;;3.20;3.00;;;19.20;99.90;;;;;;5067908;28;20188;-71
2023/07/29 00:11:42;;;;;;;3.83;3.40;;;19.10;99.90;;;;;;5067777;28;20208;-72
2023/07/29 00:14:07;;;;;;;4.13;3.80;;;19.10;99.90;;;;;;5067594;28;20181;-72
2023/07/29 00:16:33;;;;;;;4.37;3.97;;;19.10;99.90;;;;;;5067352;28;20330;-72
2023/07/29 00:18:59;;;;;;;5.37;4.87;;;19.10;99.90;;;;;;5066601;28;20172;-71
2023/07/29 00:21:24;;;;;;;4.87;4.47;;;19.10;99.90;;;;;;5068043;28;20339;-72
2023/07/29 00:23:50;;;;;;;5.10;4.70;;;19.10;99.90;;;;;;5067243;28;20290;-71
2023/07/29 00:26:16;;;;;;;4.73;4.43;;;19.10;99.90;;;;;;5067744;28;20241;-71
2023/07/29 00:28:41;;;;;;;4.90;4.40;;;19.10;99.90;;;;;;5067332;28;20204;-72
2023/07/29 00:31:07;;;;;;;5.70;5.30;;;19.10;99.90;;;;;;5067641;28;20556;-71
2023/07/29 00:33:33;;;;;;;5.23;4.83;;;19.10;99.90;;;;;;5067371;28;20182;-71
2023/07/29 00:36:01;;;;;;;4.90;4.60;;;19.10;99.90;;;;;;5067228;28;20219;-71
2023/07/29 00:38:27;;;;;;;6.33;5.10;;;19.10;99.90;;;;;;5066353;28;20204;-72
2023/07/29 00:40:53;;;;;;;5.17;4.40;;;19.10;99.90;;;;;;5065065;28;20501;-71
2023/07/29 00:43:18;;;;;;;5.00;4.60;;;19.10;99.90;;;;;;5071763;28;20197;-72
2023/07/29 00:45:44;;;;;;;4.83;4.53;;;19.10;99.90;;;;;;5071065;28;20256;-72
2023/07/29 00:48:11;;;;;;;4.90;4.60;;;19.00;99.90;;;;;;5071734;28;20197;-72
2023/07/29 00:50:37;;;;;;;4.80;4.50;;;19.00;99.90;;;;;;5071617;28;20468;-71
2023/07/29 00:53:03;;;;;;;5.40;5.00;;;19.00;99.90;;;;;;5071517;28;20411;-72
2023/07/29 00:55:29;;;;;;;4.80;4.50;;;19.00;99.90;;;;;;5070882;28;21022;-72
2023/07/29 00:57:54;;;;;;;5.63;5.13;;;18.90;99.90;;;;;;5070339;28;20308;-72
2023/07/29 01:00:21;;;;;;;5.20;4.80;;;19.00;99.90;;;;;;5070578;28;20442;-72
2023/07/29 01:02:47;;;;;;;5.60;5.20;;;18.90;99.90;;;;;;5071031;28;20805;-72
2023/07/29 01:05:15;;;;;;;5.13;4.73;;;19.00;99.90;;;;;;5070627;28;20415;-72
2023/07/29 01:07:51;;;;;;;5.43;5.00;;;19.00;99.90;;;;;;5071424;28;20197;-72
2023/07/29 01:10:22;;;;;;;4.47;4.17;;;19.00;99.90;;;;;;5071432;28;20888;-72
2023/07/29 01:13:24;;;;;;;4.90;4.50;;;19.00;99.90;;;;;;5070685;28;20462;-72
2023/07/29 01:15:55;;;;;;;5.20;4.80;;;19.00;99.90;;;;;;5067642;28;20525;-72
2023/07/29 01:18:29;;;;;;;5.17;4.73;;;18.90;99.90;;;;;;5070983;28;20924;-72
2023/07/29 01:21:01;;;;;;;5.10;4.70;;;18.80;99.90;;;;;;5070746;28;20418;-71
2023/07/29 01:23:36;;;;;;;4.60;4.20;;;18.90;99.90;;;;;;5070089;28;20434;-71
2023/07/29 01:26:03;;;;;;;4.57;4.27;;;18.80;99.90;;;;;;5069512;28;21045;-72
2023/07/29 01:28:29;;;;;;;4.83;4.53;;;18.80;99.90;;;;;;5071190;28;20438;-72
2023/07/29 01:31:09;;;;;;;5.20;4.70;;;18.80;99.90;;;;;;5070777;28;20462;-72
2023/07/29 01:33:40;;;;;;;4.60;4.30;;;18.70;99.90;;;;;;5070576;28;20411;-71
2023/07/29 01:36:15;;;;;;;4.33;4.03;;;18.70;99.90;;;;;;5070744;28;20430;-71
2023/07/29 01:38:41;;;;;;;4.40;4.00;;;18.80;99.90;;;;;;5064498;28;20441;-71
2023/07/29 01:41:09;;;;;;;4.50;4.10;;;18.80;99.90;;;;;;5070568;28;20905;-71
2023/07/29 01:43:43;;;;;;;4.60;4.20;;;18.70;99.90;;;;;;5070484;28;20421;-71
2023/07/29 01:46:13;;;;;;;4.67;4.37;;;18.70;99.90;;;;;;5068883;28;20919;-71
2023/07/29 01:48:39;;;;;;;4.43;4.03;;;18.60;99.90;;;;;;5070416;28;20431;-71
2023/07/29 01:51:06;;;;;;;4.37;4.07;;;18.60;99.90;;;;;;5070270;28;20453;-71
2023/07/29 01:53:32;;;;;;;4.37;3.97;;;18.60;99.90;;;;;;5069020;28;20481;-71
2023/07/29 01:55:57;;;;;;;4.73;4.43;;;18.60;99.90;;;;;;5069694;28;20411;-71
2023/07/29 01:58:24;;;;;;;4.60;4.10;;;18.60;99.90;;;;;;5069845;28;20624;-71
2023/07/29 02:00:49;;;;;;;4.97;4.57;;;18.50;99.90;;;;;;5070122;28;20180;-71
2023/07/29 02:03:15;;;;;;;4.60;4.30;;;18.50;99.90;;;;;;5070274;28;20751;-71
2023/07/29 02:05:43;;;;;;;5.20;4.43;;;18.50;99.90;;;;;;5068614;28;20239;-71
2023/07/29 02:08:09;;;;;;;4.63;4.20;;;18.50;99.90;;;;;;5069897;28;20197;-71
2023/07/29 02:10:35;;;;;;;5.10;4.30;;;18.50;99.90;;;;;;5069279;28;20480;-71
2023/07/29 02:13:01;;;;;;;4.50;4.10;;;18.50;99.90;;;;;;5069730;28;20979;-71
2023/07/29 02:15:26;;;;;;;4.67;4.27;;;18.40;99.90;;;;;;5069164;28;20231;-70
2023/07/29 02:17:52;;;;;;;4.63;4.23;;;18.50;99.90;;;;;;5069867;28;20299;-71
2023/07/29 02:20:18;;;;;;;4.60;4.20;;;18.50;99.90;;;;;;5069942;28;20538;-71
2023/07/29 02:22:43;;;;;;;3.60;3.40;;;18.40;99.90;;;;;;5068840;28;20260;-71
2023/07/29 02:25:09;;;;;;;5.97;3.60;;;18.40;99.90;;;;;;5068979;28;20181;-71
2023/07/29 02:27:35;;;;;;;3.73;3.53;;;18.40;99.90;;;;;;5069911;28;20199;-71
2023/07/29 02:30:02;;;;;;;3.27;3.07;;;18.50;99.90;;;;;;5067078;28;20420;-71
2023/07/29 02:32:28;;;;;;;4.20;3.80;;;18.50;99.90;;;;;;5067343;28;20542;-71
2023/07/29 02:34:53;;;;;;;3.10;2.90;;;18.50;99.90;;;;;;5068919;28;20971;-71
2023/07/29 02:37:19;;;;;;;3.90;3.60;;;18.50;99.90;;;;;;5069567;28;20228;-71
2023/07/29 02:39:45;;;;;;;3.50;3.30;;;18.50;99.90;;;;;;5069155;28;20525;-71
2023/07/29 02:42:11;;;;;;;5.40;3.40;;;18.50;99.90;;;;;;5069052;28;20895;-71
2023/07/29 02:44:37;;;;;;;3.90;3.20;;;18.50;99.90;;;;;;5068990;28;20181;-70
2023/07/29 02:47:03;;;;;;;3.37;3.10;;;18.60;99.90;;;;;;5069385;28;20446;-70
2023/07/29 02:49:29;;;;;;;3.30;3.10;;;18.60;99.90;;;;;;5069351;28;20490;-70
2023/07/29 02:51:54;;;;;;;3.53;3.33;;;18.50;99.90;;;;;;5069472;28;20933;-70
2023/07/29 02:54:20;;;;;;;2.80;2.60;;;18.50;99.90;;;;;;5068757;28;20173;-71
2023/07/29 02:56:46;;;;;;;3.70;3.40;;;18.50;99.90;;;;;;5069172;28;20216;-71
2023/07/29 02:59:12;;;;;;;3.67;3.37;;;18.50;99.90;;;;;;5067433;28;20258;-71
2023/07/29 03:01:37;;;;;;;3.70;3.07;;;18.60;99.90;;;;;;5068811;28;20676;-70
2023/07/29 03:04:03;;;;;;;3.37;3.07;;;18.60;99.90;;;;;;5067930;28;20205;-71
2023/07/29 03:06:29;;;;;;;4.43;3.23;;;18.60;99.90;;;;;;5068684;28;20944;-71
2023/07/29 03:08:54;;;;;;;3.37;3.17;;;18.50;99.90;;;;;;5069107;28;20439;-71
2023/07/29 03:11:20;;;;;;;4.40;3.30;;;18.60;99.90;;;;;;5066466;28;20207;-71
2023/07/29 03:13:46;;;;;;;5.03;3.30;;;18.60;99.90;;;;;;5068338;28;20205;-71
2023/07/29 03:16:16;;;;;;;3.90;3.40;;;18.70;99.90;;;;;;5068277;28;20192;-71
2023/07/29 03:18:43;;;;;;;4.10;3.43;;;18.70;99.90;;;;;;5068455;28;20276;-71
2023/07/29 03:21:09;;;;;;;3.60;2.67;;;18.70;99.90;;;;;;5068231;28;20833;-71
2023/07/29 03:23:35;;;;;;;3.60;3.30;;;18.70;99.90;;;;;;5068323;28;20435;-71
2023/07/29 03:26:04;;;;;;;3.30;3.10;;;18.70;99.90;;;;;;5068438;28;20432;-71
2023/07/29 03:28:32;;;;;;;3.27;3.07;;;18.70;99.90;;;;;;5068343;28;20521;-71
2023/07/29 03:30:57;;;;;;;11.60;4.03;;;18.70;99.90;;;;;;5068416;28;20552;-71
2023/07/29 03:33:25;;;;;;;3.27;3.07;;;18.60;99.90;;;;;;5068147;28;20502;-71
2023/07/29 03:35:51;;;;;;;4.40;3.50;;;18.70;99.90;;;;;;5067939;28;20780;-71
2023/07/29 03:38:17;;;;;;;3.50;3.30;;;18.60;99.90;;;;;;5068347;28;20431;-71
2023/07/29 03:40:43;;;;;;;3.97;3.67;;;18.60;99.90;;;;;;5068450;28;20414;-71
2023/07/29 03:43:09;;;;;;;3.80;3.60;;;18.70;99.90;;;;;;5068357;28;20261;-71
2023/07/29 03:45:36;;;;;;;3.90;3.50;;;18.60;99.90;;;;;;5066427;28;20507;-72
2023/07/29 03:48:03;;;;;;;3.40;3.20;;;18.60;99.90;;;;;;5068476;28;20672;-71
2023/07/29 03:50:29;;;;;;;3.60;3.30;;;18.70;99.90;;;;;;5067010;28;20465;-71
2023/07/29 03:52:55;;;;;;;3.50;3.20;;;18.70;99.90;;;;;;5067441;28;20977;-71
2023/07/29 03:55:21;;;;;;;6.60;3.60;;;18.70;99.90;;;;;;5067418;28;20419;-71
2023/07/29 03:57:47;;;;;;;4.07;3.77;;;18.60;99.90;;;;;;5067712;28;20430;-72
2023/07/29 04:00:13;;;;;;;3.60;3.30;;;18.70;99.90;;;;;;5067478;28;20850;-71
2023/07/29 04:02:40;;;;;;;3.67;3.40;;;18.70;99.90;;;;;;5067820;28;20598;-72
2023/07/29 04:05:08;;;;;;;3.93;3.40;;;18.70;99.90;;;;;;5066753;28;20497;-71
2023/07/29 04:07:35;;;;;;;3.77;3.57;;;18.70;99.90;;;;;;5067606;28;21001;-71
2023/07/29 04:10:01;;;;;;;3.40;3.20;;;18.70;99.90;;;;;;5067960;28;20805;-71
2023/07/29 04:12:27;;;;;;;4.37;3.97;;;18.70;99.90;;;;;;5067538;28;20811;-71
2023/07/29 04:14:53;;;;;;;6.37;4.50;;;18.70;99.90;;;;;;5066790;28;20469;-71
2023/07/29 04:17:18;;;;;;;6.37;5.00;;;18.70;99.90;;;;;;5067551;28;20654;-71
2023/07/29 04:19:44;;;;;;;5.00;4.60;;;18.70;99.90;;;;;;5067991;28;20626;-72
2023/07/29 04:22:10;;;;;;;9.13;5.47;;;18.70;99.90;;;;;;5067665;28;20185;-72
2023/07/29 04:24:36;;;;;;;5.40;4.90;;;18.80;99.90;;;;;;5067071;28;20295;-72
2023/07/29 04:27:01;;;;;;;5.23;4.83;;;18.70;99.90;;;;;;5065715;28;20213;-72
2023/07/29 04:29:27;;;;;;;5.03;4.63;;;18.70;99.90;;;;;;5067537;28;20218;-72
2023/07/29 04:31:53;;;;;;;4.57;4.27;;;18.70;99.90;;;;;;5067695;28;20200;-72
2023/07/29 04:34:19;;;;;;;5.77;5.17;;;18.70;99.90;;;;;;5067151;28;20799;-72
2023/07/29 04:36:48;;;;;;;5.90;5.47;;;18.70;99.90;;;;;;5067382;28;20245;-72
2023/07/29 04:39:14;;;;;;;4.87;4.47;;;18.70;99.90;;;;;;5065958;28;20412;-72
2023/07/29 04:41:40;;;;;;;5.40;5.00;;;18.70;99.90;;;;;;5067534;28;20411;-72
2023/07/29 04:44:05;;;;;;;4.97;4.67;;;18.70;99.90;;;;;;5065830;28;20476;-72
2023/07/29 04:46:31;;;;;;;5.70;5.20;;;18.70;99.90;;;;;;5067189;28;20230;-72
2023/07/29 04:48:57;;;;;;;5.70;5.20;;;18.70;99.90;;;;;;5067571;28;20642;-72
2023/07/29 04:51:24;;;;;;;5.97;5.23;;;18.80;99.90;;;;;;5067757;28;20551;-72
2023/07/29 04:53:50;;;;;;;5.30;4.83;;;18.80;99.90;;;;;;5067043;28;20173;-72
2023/07/29 04:56:15;;;;;;;6.27;5.77;;;18.90;99.90;;;;;;5067013;28;20411;-72
2023/07/29 04:58:41;;;;;;;7.93;6.60;;;18.80;99.90;;;;;;5065636;28;20315;-72
2023/07/29 05:01:07;;;;;;;6.03;5.53;;;18.90;99.90;;;;;;5065272;28;20193;-72
2023/07/29 05:03:33;;;;;;;6.73;6.13;;;18.80;99.90;;;;;;5066526;28;20200;-72
2023/07/29 05:05:59;;;;;;;7.50;6.73;;;18.80;99.90;;;;;;5066883;28;20181;-72
2023/07/29 05:08:28;;;;;;;7.03;6.43;;;18.80;99.90;;;;;;5067148;28;20204;-72
2023/07/29 05:10:54;;;;;;;7.00;6.40;;;18.80;99.90;;;;;;5067384;28;20843;-72
2023/07/29 05:13:20;;;;;;;7.30;6.70;;;18.70;99.90;;;;;;5067613;28;20412;-72
2023/07/29 05:15:48;;;;;;;7.13;6.53;;;18.70;99.90;;;;;;5066548;28;20506;-72
2023/07/29 05:18:14;;;;;;;8.60;7.80;;;18.70;99.90;;;;;;5067162;28;20435;-72
2023/07/29 05:20:40;;;;;;;9.00;8.20;;;18.70;99.90;;;;;;5067285;28;20411;-72
2023/07/29 05:23:05;;;;;;;7.50;6.90;;;18.70;99.90;;;;;;5066908;28;20434;-72
2023/07/29 05:25:31;;;;;;;10.33;9.43;;;18.70;99.90;;;;;;5066540;28;20265;-72
2023/07/29 05:27:57;;;;;;;10.70;9.70;;;18.70;99.90;;;;;;5069735;28;20204;-72
2023/07/29 05:30:23;;;;;;;9.43;8.63;;;18.60;99.90;;;;;;5071109;28;20588;-72
2023/07/29 05:32:49;;;;;;;11.50;10.50;;;18.60;99.90;;;;;;5069268;28;20446;-72
2023/07/29 05:35:14;;;;;;;13.43;12.00;;;18.60;99.90;;;;;;5070616;28;20900;-72
2023/07/29 05:37:40;;;;;;;13.03;11.80;;;18.60;99.90;;;;;;5070709;28;20200;-72
2023/07/29 05:40:07;;;;;;;12.27;11.00;;;18.70;99.90;;;;;;5071019;28;20554;-72
2023/07/29 05:42:33;;;;;;;13.80;12.27;;;18.70;99.90;;;;;;5070495;28;20450;-72
2023/07/29 05:44:59;;;;;;;13.50;12.30;;;18.70;99.90;;;;;;5070126;28;20403;-72
2023/07/29 05:47:24;;;;;;;13.03;11.80;;;18.70;99.90;;;;;;5070845;28;20843;-72
2023/07/29 05:49:50;;;;;;;12.73;11.47;;;18.70;99.90;;;;;;5069157;28;20181;-72
2023/07/29 05:52:16;;;;;;;13.03;11.50;;;18.70;99.90;;;;;;5071255;28;20196;-72
2023/07/29 05:54:42;;;;;;;12.57;11.30;;;18.70;99.90;;;;;;5069925;28;20177;-72
2023/07/29 05:57:09;;;;;;;12.90;11.60;;;18.80;99.90;;;;;;5070842;28;20185;-72
2023/07/29 05:59:35;;;;;;;12.60;11.33;;;18.80;99.90;;;;;;5068700;28;20765;-72
2023/07/29 06:02:01;;;;;;;12.70;11.47;;;18.80;99.90;;;;;;5070586;28;20404;-72
2023/07/29 06:04:27;;;;;;;13.10;11.90;;;18.70;99.90;;;;;;5070034;28;20677;-75
2023/07/29 06:06:52;;;;;;;15.37;13.77;;;18.70;99.90;;;;;;5065083;28;20663;-72
2023/07/29 06:09:18;;;;;;;16.20;12.00;;;18.60;99.90;;;;;;5067140;28;20204;-72
2023/07/29 06:11:44;;;;;;;14.83;13.43;;;18.60;99.90;;;;;;5063817;28;20242;-72
2023/07/29 06:14:09;;;;;;;12.90;11.60;;;18.60;99.90;;;;;;5064345;28;20268;-72
2023/07/29 06:16:35;;;;;;;12.00;10.90;;;18.60;99.90;;;;;;5069431;28;20634;-72
2023/07/29 06:19:01;;;;;;;10.57;9.60;;;18.60;99.90;;;;;;5066802;28;20591;-73
2023/07/29 06:21:26;;;;;;;11.67;9.00;;;18.60;99.90;;;;;;5069874;28;20205;-73
2023/07/29 06:23:52;;;;;;;8.93;8.03;;;18.60;99.90;;;;;;5069462;28;20173;-73
2023/07/29 06:26:18;;;;;;;8.00;7.30;;;18.60;99.90;;;;;;5069645;28;20416;-72
2023/07/29 06:28:44;;;;;;;7.83;7.03;;;18.50;99.90;;;;;;5069516;28;20451;-73
2023/07/29 06:31:10;;;;;;;7.67;6.80;;;18.50;99.90;;;;;;5069730;28;20205;-73
2023/07/29 06:33:35;;;;;;;7.27;6.57;;;18.50;99.90;;;;;;5066378;28;20173;-72
2023/07/29 06:36:01;;;;;;;5.43;5.03;;;18.60;99.90;;;;;;5067171;28;20208;-73
2023/07/29 06:38:27;;;;;;;5.20;4.80;;;18.60;99.90;;;;;;5066533;28;20201;-73
2023/07/29 06:40:53;;;;;;;4.83;4.43;;;18.50;99.90;;;;;;5064346;28;20548;-72
2023/07/29 06:43:18;;;;;;;6.23;4.07;;;18.50;99.90;;;;;;5068134;28;20182;-72
2023/07/29 06:45:44;;;;;;;4.47;4.07;;;18.50;99.90;;;;;;5068253;28;20181;-72
2023/07/29 06:48:10;;;;;;;5.47;4.30;;;18.50;99.90;;;;;;5068957;28;20619;-72
2023/07/29 06:50:35;;;;;;;4.13;3.07;;;18.50;99.90;;;;;;5069569;28;20221;-72
2023/07/29 06:53:01;;;;;;;3.87;3.40;;;18.50;99.90;;;;;;5069615;28;20213;-72
2023/07/29 06:55:27;;;;;;;3.83;3.07;;;18.50;99.90;;;;;;5068525;28;20177;-72
2023/07/29 06:57:52;;;;;;;3.00;2.60;;;18.60;99.90;;;;;;5069235;28;20287;-72
2023/07/29 07:00:18;;;;;;;3.93;2.90;;;18.50;99.90;;;;;;5069271;28;20662;-72
2023/07/29 07:02:44;;;;;;;3.60;3.30;;;18.50;99.90;;;;;;5068989;28;20177;-72
2023/07/29 07:05:09;;;;;;;4.13;3.70;;;18.50;99.90;;;;;;5068227;28;20212;-72
2023/07/29 07:07:35;;;;;;;4.73;3.47;;;18.50;99.90;;;;;;5068869;28;20220;-72
2023/07/29 07:10:01;;;;;;;6.97;3.90;;;18.60;99.90;;;;;;5069004;28;20548;-72
2023/07/29 07:12:26;;;;;;;6.27;3.97;;;18.50;99.90;;;;;;5069056;28;20207;-72
2023/07/29 07:14:52;;;;;;;4.33;3.93;;;18.50;99.90;;;;;;5068028;28;20613;-72
2023/07/29 07:17:18;;;;;;;4.70;3.27;;;18.50;99.90;;;;;;5068886;28;20266;-72
2023/07/29 07:19:44;;;;;;;4.30;3.30;;;18.40;99.90;;;;;;5068633;28;20204;-72
2023/07/29 07:22:09;;;;;;;4.27;3.47;;;18.40;99.90;;;;;;5067575;28;20173;-73
2023/07/29 07:24:35;;;;;;;5.87;4.00;;;18.50;99.90;;;;;;5068133;28;20208;-72
2023/07/29 07:27:02;;;;;;;4.23;3.60;;;18.50;99.90;;;;;;5061524;28;20214;-72
2023/07/29 07:29:28;;;;;;;4.67;3.30;;;18.60;99.90;;;;;;5064797;28;20185;-72
2023/07/29 07:31:54;;;;;;;3.80;3.40;;;18.70;99.90;;;;;;5069390;28;20820;-72
2023/07/29 07:34:20;;;;;;;3.90;2.93;;;18.90;99.90;;;;;;5061024;28;20189;-72
2023/07/29 07:36:46;;;;;;;3.60;3.07;;;19.10;99.90;;;;;;5068590;28;20439;-72
2023/07/29 07:39:12;;;;;;;3.90;3.27;;;19.20;99.90;;;;;;5062163;28;20928;-72
2023/07/29 07:41:38;;;;;;;3.40;3.07;;;19.40;99.90;;;;;;5059566;28;20212;-71
2023/07/29 07:44:04;;;;;;;3.60;3.20;;;19.40;99.90;;;;;;5058296;28;20435;-72
2023/07/29 07:46:29;;;;;;;3.00;2.70;;;19.60;99.90;;;;;;5065822;28;20407;-72
2023/07/29 07:48:55;;;;;;;2.37;2.17;;;19.70;99.90;;;;;;5066448;28;20204;-72
2023/07/29 07:51:21;;;;;;;2.90;2.40;;;19.70;99.90;;;;;;5066914;28;20273;-72
2023/07/29 07:53:47;;;;;;;4.70;2.47;;;19.70;99.90;;;;;;5065065;28;20173;-72
2023/07/29 07:56:13;;;;;;;3.03;2.00;;;19.70;99.90;;;;;;5066782;28;20180;-71
2023/07/29 07:58:39;;;;;;;3.90;2.37;;;19.70;99.90;;;;;;5066311;28;20908;-72
2023/07/29 08:01:06;;;;;;;2.53;1.90;;;19.90;99.90;;;;;;5067784;28;20522;-72
2023/07/29 08:03:32;;;;;;;3.20;2.10;;;19.80;99.90;;;;;;5067919;28;20238;-72
2023/07/29 08:05:58;;;;;;;2.60;2.37;;;19.90;99.90;;;;;;5067428;28;20407;-72
2023/07/29 08:08:25;;;;;;;2.47;2.00;;;20.00;99.90;;;;;;5067916;28;20220;-72
2023/07/29 08:10:54;;;;;;;4.17;2.40;;;20.00;99.90;;;;;;5066561;28;20412;-72
2023/07/29 08:13:20;;;;;;;2.97;2.67;;;20.10;99.90;;;;;;5067654;28;20918;-72
2023/07/29 08:15:50;;;;;;;4.93;2.43;;;20.00;99.90;;;;;;5067216;28;20435;-71
2023/07/29 08:18:16;;;;;;;3.60;2.20;;;20.10;99.90;;;;;;5067767;28;20552;-72
2023/07/29 08:20:51;;;;;;;3.00;2.70;;;20.10;99.90;;;;;;5067825;28;20404;-72
2023/07/29 08:23:16;;;;;;;3.43;3.03;;;20.20;99.90;;;;;;5066579;28;20950;-72
2023/07/29 08:25:42;;;;;;;3.70;3.40;;;20.20;99.90;;;;;;5067185;28;20415;-72
2023/07/29 08:28:08;;;;;;;2.70;2.50;;;20.20;99.90;;;;;;5067541;28;20200;-72
2023/07/29 08:30:33;;;;;;;3.53;2.50;;;20.20;99.90;;;;;;5067758;28;20184;-72
2023/07/29 08:32:59;;;;;;;2.50;2.30;;;20.20;99.90;;;;;;5067595;28;20600;-72
2023/07/29 08:35:25;;;;;;;2.83;2.53;;;20.20;99.90;;;;;;5066791;28;20513;-72
2023/07/29 08:37:50;;;;;;;2.20;2.00;;;20.10;99.90;;;;;;5067727;28;20280;-72
2023/07/29 08:40:16;;;;;;;2.27;2.07;;;20.20;99.90;;;;;;5067607;28;20180;-72
2023/07/29 08:42:47;;;;;;;1.87;1.50;;;20.20;99.90;;;;;;5067718;28;20177;-72
2023/07/29 08:45:14;;;;;;;1.60;1.50;;;20.30;99.90;;;;;;5066942;28;20403;-72
2023/07/29 08:47:39;;;;;;;1.50;1.40;;;20.30;99.90;;;;;;5067623;28;20435;-72
2023/07/29 08:50:06;;;;;;;1.50;1.40;;;20.30;99.90;;;;;;5067628;28;20415;-72
2023/07/29 08:52:32;;;;;;;1.60;1.23;;;20.50;99.90;;;;;;5066370;28;20212;-72
2023/07/29 08:54:59;;;;;;;2.80;1.40;;;20.50;99.90;;;;;;5066923;28;21110;-72
2023/07/29 08:57:26;;;;;;;1.77;1.47;;;20.50;99.90;;;;;;5067064;28;20962;-72
2023/07/29 08:59:51;;;;;;;2.10;1.40;;;20.60;99.90;;;;;;5067514;28;20442;-72
2023/07/29 09:02:18;;;;;;;2.13;1.60;;;20.50;99.90;;;;;;5068971;28;20431;-72
2023/07/29 09:04:43;;;;;;;1.60;1.33;;;20.60;99.90;;;;;;5070785;28;20226;-72
2023/07/29 09:07:10;;;;;;;2.00;1.77;;;20.70;99.90;;;;;;5071340;28;20427;-72
2023/07/29 09:09:35;;;;;;;2.40;2.20;;;20.70;99.90;;;;;;5071549;28;20184;-72
2023/07/29 09:12:02;;;;;;;3.00;2.80;;;20.70;99.90;;;;;;5071251;28;20813;-72
2023/07/29 09:14:28;;;;;;;2.70;2.50;;;20.60;99.90;;;;;;5070800;28;20297;-72
2023/07/29 09:16:53;;;;;;;2.67;2.47;;;20.70;99.90;;;;;;5071064;28;20453;-72
2023/07/29 09:19:19;;;;;;;2.47;2.10;;;20.80;99.90;;;;;;5070968;28;20411;-72
2023/07/29 09:21:47;;;;;;;2.53;1.90;;;20.70;99.90;;;;;;5071332;28;20637;-72
2023/07/29 09:24:15;;;;;;;2.50;1.87;;;20.80;99.90;;;;;;5070785;28;20646;-72
2023/07/29 09:26:49;;;;;;;1.50;1.40;;;20.90;99.90;;;;;;5070470;28;20494;-72
2023/07/29 09:29:15;;;;;;;1.37;1.27;;;21.00;99.90;;;;;;5070999;28;20449;-72
2023/07/29 09:31:40;;;;;;;4.73;2.00;;;21.00;99.90;;;;;;5070621;28;20490;-72
2023/07/29 09:34:06;;;;;;;1.40;1.30;;;21.10;99.90;;;;;;5070699;28;20664;-72
2023/07/29 09:36:33;;;;;;;4.03;1.20;;;21.10;99.90;;;;;;5070184;28;20763;-72
2023/07/29 09:38:59;;;;;;;1.57;1.10;;;21.20;99.90;;;;;;5071001;28;20639;-72
2023/07/29 09:41:26;;;;;;;1.73;1.63;;;21.30;99.90;;;;;;5070447;28;20407;-72
2023/07/29 09:44:01;;;;;;;1.23;1.03;;;21.40;99.90;;;;;;5070463;28;20482;-72
2023/07/29 09:46:36;;;;;;;1.70;1.60;;;21.50;99.90;;;;;;5070017;28;20499;-72
2023/07/29 09:49:03;;;;;;;1.60;1.30;;;21.60;99.90;;;;;;5069543;28;20513;-72
2023/07/29 09:51:29;;;;;;;2.10;2.00;;;21.70;99.90;;;;;;5066167;28;20486;-72
2023/07/29 09:53:55;;;;;;;3.20;2.00;;;21.80;99.90;;;;;;5064520;28;20894;-72
2023/07/29 09:56:27;;;;;;;2.60;2.40;;;21.80;99.90;;;;;;5067417;28;20223;-72
2023/07/29 09:58:55;;;;;;;2.13;2.03;;;21.70;99.90;;;;;;5063313;28;20427;-72
2023/07/29 10:01:21;;;;;;;2.30;2.10;;;21.60;99.90;;;;;;5068626;28;20499;-72
2023/07/29 10:03:48;;;;;;;2.83;2.20;;;21.50;99.90;;;;;;5069929;28;20519;-72
2023/07/29 10:06:15;;;;;;;1.73;1.57;;;21.40;99.90;;;;;;5068636;28;20177;-72
2023/07/29 10:08:43;;;;;;;1.87;1.77;;;21.30;99.90;;;;;;5067474;28;20545;-72
2023/07/29 10:11:09;;;;;;;1.70;1.60;;;21.20;99.90;;;;;;5069952;28;21156;-72
2023/07/29 10:13:36;;;;;;;1.50;1.40;;;21.10;99.90;;;;;;5068157;28;20827;-72
2023/07/29 10:16:03;;;;;;;1.60;1.40;;;21.10;99.90;;;;;;5069829;28;20904;-72
2023/07/29 10:18:30;;;;;;;1.37;1.20;;;21.10;99.90;;;;;;5068823;28;20431;-72
2023/07/29 10:20:58;;;;;;;1.47;1.20;;;21.10;99.90;;;;;;5070172;28;20744;-72
2023/07/29 10:23:25;;;;;;;1.20;1.10;;;21.10;99.90;;;;;;5068611;28;20422;-72
2023/07/29 10:26:05;;;;;;;2.20;1.30;;;21.10;99.90;;;;;;5069521;28;20447;-72
2023/07/29 10:28:32;;;;;;;1.17;1.07;;;21.30;99.90;;;;;;5069405;28;20840;-72
2023/07/29 10:30:59;;;;;;;2.20;1.20;;;21.50;99.90;;;;;;5069751;28;20403;-72
2023/07/29 10:33:25;;;;;;;1.63;1.30;;;21.70;99.90;;;;;;5069550;28;20737;-72
2023/07/29 10:35:52;;;;;;;1.40;1.30;;;21.90;99.90;;;;;;5069097;28;20435;-72
2023/07/29 10:38:19;;;;;;;6.50;1.60;;;22.00;99.90;;;;;;5069480;28;20842;-72
2023/07/29 10:40:55;;;;;;;1.77;1.40;;;22.10;99.90;;;;;;5069623;28;20422;-72
2023/07/29 10:43:26;;;;;;;2.60;1.50;;;22.20;99.90;;;;;;5069571;28;20407;-72
2023/07/29 10:45:52;;;;;;;1.93;1.50;;;22.20;99.90;;;;;;5069430;28;20925;-72
2023/07/29 10:48:33;;;;;;;3.53;1.40;;;22.20;99.90;;;;;;5068916;28;20431;-72
2023/07/29 10:51:32;;;;;;;2.10;1.70;;;22.30;99.90;;;;;;5069334;28;20638;-72
2023/07/29 10:54:04;;;;;;;1.73;1.60;;;22.20;99.90;;;;;;5068993;28;20411;-72
2023/07/29 10:56:34;;;;;;;1.90;1.20;;;22.20;99.90;;;;;;5068936;28;20456;-72
2023/07/29 10:59:35;;;;;;;2.10;1.30;;;22.20;99.90;;;;;;5068574;28;20403;-72
2023/07/29 11:02:01;;;;;;;2.00;1.50;;;22.20;99.90;;;;;;5067859;28;20786;-72
2023/07/29 11:04:31;;;;;;;2.67;1.50;;;22.20;99.90;;;;;;5068429;28;20516;-72
2023/07/29 11:07:07;;;;;;;1.50;1.40;;;22.20;99.90;;;;;;5068792;28;20518;-72
2023/07/29 11:10:02;;;;;;;2.87;1.30;;;22.10;99.90;;;;;;5069229;28;20504;-72
2023/07/29 11:12:45;;;;;;;2.70;1.50;;;22.20;99.90;;;;;;5066972;28;20538;-72
2023/07/29 11:15:10;;;;;;;2.17;1.50;;;22.20;99.90;;;;;;5068503;28;20594;-72
2023/07/29 11:17:39;;;;;;;2.70;1.80;;;22.30;99.90;;;;;;5068535;28;20426;-72
2023/07/29 11:20:09;;;;;;;3.43;1.50;;;22.20;99.90;;;;;;5068949;28;20646;-72
2023/07/29 11:22:35;;;;;;;1.73;1.23;;;22.20;99.90;;;;;;5068778;28;20420;-72
2023/07/29 11:25:01;;;;;;;2.20;1.40;;;22.30;99.90;;;;;;5067924;28;20414;-72
2023/07/29 11:27:27;;;;;;;1.53;1.30;;;22.40;99.90;;;;;;5068567;28;20427;-72
2023/07/29 11:30:08;;;;;;;1.43;0.90;;;22.60;99.90;;;;;;5068829;28;20661;-72
2023/07/29 11:32:34;;;;;;;1.30;1.20;;;22.80;99.90;;;;;;5068369;28;20251;-72
2023/07/29 11:35:10;;;;;;;3.07;1.37;;;22.90;99.90;;;;;;5067944;28;20973;-72
2023/07/29 11:37:37;;;;;;;2.00;1.17;;;23.10;99.90;;;;;;5068361;28;20431;-72
2023/07/29 11:40:04;;;;;;;1.93;1.10;;;23.10;99.90;;;;;;5068620;28;20406;-72
2023/07/29 11:42:32;;;;;;;1.60;1.10;;;23.00;99.90;;;;;;5068501;28;20415;-72
2023/07/29 11:44:58;;;;;;;3.03;1.30;;;22.90;99.90;;;;;;5067746;28;20464;-72
2023/07/29 11:47:24;;;;;;;1.67;1.40;;;22.80;99.90;;;;;;5068115;28;20467;-72
2023/07/29 11:49:50;;;;;;;1.63;1.50;;;22.60;99.90;;;;;;5068315;28;20173;-72
2023/07/29 11:52:19;;;;;;;1.23;1.13;;;22.50;99.90;;;;;;5068274;28;20593;-72
2023/07/29 11:54:47;;;;;;;2.50;1.77;;;22.40;99.90;;;;;;5067630;28;20162;-72
2023/07/29 11:57:14;;;;;;;2.00;1.80;;;22.30;99.90;;;;;;5058985;28;20566;-72
2023/07/29 11:59:41;;;;;;;2.33;1.20;;;22.30;99.90;;;;;;5066951;28;20411;-72
2023/07/29 12:02:19;;;;;;;2.20;1.77;;;22.20;99.90;;;;;;5068183;28;20518;-72
2023/07/29 12:04:46;;;;;;;1.77;1.57;;;22.20;99.90;;;;;;5067762;28;20457;-72
2023/07/29 12:07:13;;;;;;;1.50;1.40;;;22.30;99.90;;;;;;5067817;28;20948;-72
2023/07/29 12:09:39;;;;;;;1.63;1.53;;;22.50;99.90;;;;;;5068063;28;21153;-71
2023/07/29 12:12:06;;;;;;;1.70;1.60;;;22.70;99.90;;;;;;5067730;28;20451;-71
2023/07/29 12:14:32;;;;;;;5.20;1.97;;;22.80;99.90;;;;;;5066403;28;20583;-72
2023/07/29 12:17:04;;;;;;;1.90;1.60;;;22.80;99.90;;;;;;5066581;28;20439;-72
2023/07/29 12:19:37;;;;;;;4.73;1.50;;;22.90;99.90;;;;;;5067970;28;20760;-71
2023/07/29 12:22:06;;;;;;;2.00;1.70;;;23.00;99.90;;;;;;5066436;28;20408;-71
2023/07/29 12:24:33;;;;;;;4.40;1.40;;;23.00;99.90;;;;;;5067201;28;20433;-72
2023/07/29 12:26:59;;;;;;;1.73;1.53;;;23.00;99.90;;;;;;5067375;28;20439;-71
2023/07/29 12:29:25;;;;;;;1.70;1.50;;;23.00;99.90;;;;;;5067565;28;20915;-72
2023/07/29 12:31:59;;;;;;;4.80;1.90;;;23.00;99.90;;;;;;5067737;28;21023;-72
2023/07/29 12:34:28;;;;;;;1.90;1.70;;;23.10;99.90;;;;;;5067208;28;20419;-71
2023/07/29 12:36:55;;;;;;;2.00;1.63;;;23.20;99.90;;;;;;5066966;28;20427;-72
2023/07/29 12:39:24;;;;;;;1.70;1.60;;;23.30;99.90;;;;;;5067435;28;20502;-72
2023/07/29 12:41:52;;;;;;;1.80;1.70;;;23.40;99.90;;;;;;5067874;28;20912;-71
2023/07/29 12:44:18;;;;;;;2.07;1.50;;;23.40;99.90;;;;;;5066910;28;20452;-72
2023/07/29 12:46:44;;;;;;;6.07;1.90;;;23.40;99.90;;;;;;5067489;28;20522;-71